logo
Rechercher aéroport 
image banner adimage banner adimage banner ad
image banner ad

4CA4 - St Francis Medical Center Helistop

Situé à Lynwood, United States

ICAO - 4CA4, IATA -

Données fournies par Airmate  

Information générale

Coordonnées: N33°55'47" W118°12'10"
Élévation : 154 feet MSL.
Variation magnétique : 14° East
Voir autres Aéroports à California

Données opérationnelles

Special qualification required
Heure actuelle UTC:
Heure actuelle locale:
METAR: KHHR 281253Z AUTO 00000KT 10SM CLR 21/18 A2989 RMK AO2 SLP120 T02110178 $
Voir NOTAMs / SUP AIP / TFR affectant cet aéroport [VIEW]
Fréquences de communication: [VIEW]

Pistes:

Coordonnées de l'aéroport

Adresse: Lynwood United States

Vue satellite de 4CA4